sensor_id;sensor_type;location;lat;lon;timestamp;temperature;humidity
64209;DHT22;50527;52.414;13.226;2022-11-12T00:00:37;6.20;97.30
64209;DHT22;50527;52.414;13.226;2022-11-12T00:03:03;6.10;96.60
64209;DHT22;50527;52.414;13.226;2022-11-12T00:05:29;6.00;97.20
64209;DHT22;50527;52.414;13.226;2022-11-12T00:07:54;6.00;97.60
64209;DHT22;50527;52.414;13.226;2022-11-12T00:10:20;6.00;97.80
64209;DHT22;50527;52.414;13.226;2022-11-12T00:12:46;5.90;97.80
64209;DHT22;50527;52.414;13.226;2022-11-12T00:15:11;5.90;98.00
64209;DHT22;50527;52.414;13.226;2022-11-12T00:17:37;5.90;97.60
64209;DHT22;50527;52.414;13.226;2022-11-12T00:20:03;5.90;97.80
64209;DHT22;50527;52.414;13.226;2022-11-12T00:22:29;5.90;97.60
64209;DHT22;50527;52.414;13.226;2022-11-12T00:24:55;5.90;98.10
64209;DHT22;50527;52.414;13.226;2022-11-12T00:27:20;5.90;97.90
64209;DHT22;50527;52.414;13.226;2022-11-12T00:29:46;5.90;98.00
64209;DHT22;50527;52.414;13.226;2022-11-12T00:32:11;5.80;97.90
64209;DHT22;50527;52.414;13.226;2022-11-12T00:34:37;5.90;97.90
64209;DHT22;50527;52.414;13.226;2022-11-12T00:37:03;5.80;98.20
64209;DHT22;50527;52.414;13.226;2022-11-12T00:39:28;5.90;98.30
64209;DHT22;50527;52.414;13.226;2022-11-12T00:41:54;5.90;98.10
64209;DHT22;50527;52.414;13.226;2022-11-12T00:44:20;5.90;98.30
64209;DHT22;50527;52.414;13.226;2022-11-12T00:46:45;5.80;97.90
64209;DHT22;50527;52.414;13.226;2022-11-12T00:49:11;5.80;97.40
64209;DHT22;50527;52.414;13.226;2022-11-12T00:51:37;5.80;97.00
64209;DHT22;50527;52.414;13.226;2022-11-12T00:54:02;5.80;97.60
64209;DHT22;50527;52.414;13.226;2022-11-12T00:56:28;5.70;98.00
64209;DHT22;50527;52.414;13.226;2022-11-12T00:58:53;5.70;97.90
64209;DHT22;50527;52.414;13.226;2022-11-12T01:01:19;5.60;97.70
64209;DHT22;50527;52.414;13.226;2022-11-12T01:03:45;5.70;97.50
64209;DHT22;50527;52.414;13.226;2022-11-12T01:06:13;5.70;97.80
64209;DHT22;50527;52.414;13.226;2022-11-12T01:08:39;5.60;97.60
64209;DHT22;50527;52.414;13.226;2022-11-12T01:11:14;5.60;97.70
64209;DHT22;50527;52.414;13.226;2022-11-12T01:13:42;5.70;97.30
64209;DHT22;50527;52.414;13.226;2022-11-12T01:16:10;5.70;96.70
64209;DHT22;50527;52.414;13.226;2022-11-12T01:18:36;5.60;96.60
64209;DHT22;50527;52.414;13.226;2022-11-12T01:21:03;5.60;96.00
64209;DHT22;50527;52.414;13.226;2022-11-12T01:23:31;5.50;96.50
64209;DHT22;50527;52.414;13.226;2022-11-12T01:25:57;5.40;97.40
64209;DHT22;50527;52.414;13.226;2022-11-12T01:28:23;5.50;97.50
64209;DHT22;50527;52.414;13.226;2022-11-12T01:30:48;5.60;97.50
64209;DHT22;50527;52.414;13.226;2022-11-12T01:33:14;5.60;97.40
64209;DHT22;50527;52.414;13.226;2022-11-12T01:35:39;5.50;97.30
64209;DHT22;50527;52.414;13.226;2022-11-12T01:38:05;5.50;96.60
64209;DHT22;50527;52.414;13.226;2022-11-12T01:40:31;5.50;97.00
64209;DHT22;50527;52.414;13.226;2022-11-12T01:42:57;5.50;97.00
64209;DHT22;50527;52.414;13.226;2022-11-12T01:45:22;5.50;96.40
64209;DHT22;50527;52.414;13.226;2022-11-12T01:47:49;5.40;96.00
64209;DHT22;50527;52.414;13.226;2022-11-12T01:50:23;5.40;96.50
64209;DHT22;50527;52.414;13.226;2022-11-12T01:52:57;5.40;95.90
64209;DHT22;50527;52.414;13.226;2022-11-12T01:55:31;5.40;96.00
64209;DHT22;50527;52.414;13.226;2022-11-12T01:58:06;5.30;96.20
64209;DHT22;50527;52.414;13.226;2022-11-12T02:00:32;5.20;96.40
64209;DHT22;50527;52.414;13.226;2022-11-12T02:03:00;5.30;96.60
64209;DHT22;50527;52.414;13.226;2022-11-12T02:05:28;5.30;96.60
64209;DHT22;50527;52.414;13.226;2022-11-12T02:07:56;5.30;96.20
64209;DHT22;50527;52.414;13.226;2022-11-12T02:10:22;5.30;95.70
64209;DHT22;50527;52.414;13.226;2022-11-12T02:12:49;5.20;95.60
64209;DHT22;50527;52.414;13.226;2022-11-12T02:15:36;5.20;95.60
64209;DHT22;50527;52.414;13.226;2022-11-12T02:18:01;5.20;95.90
64209;DHT22;50527;52.414;13.226;2022-11-12T02:20:32;5.10;95.80
64209;DHT22;50527;52.414;13.226;2022-11-12T02:22:57;5.20;95.60
64209;DHT22;50527;52.414;13.226;2022-11-12T02:25:23;5.10;95.60
64209;DHT22;50527;52.414;13.226;2022-11-12T02:27:51;5.10;95.60
64209;DHT22;50527;52.414;13.226;2022-11-12T02:30:22;5.10;95.30
64209;DHT22;50527;52.414;13.226;2022-11-12T02:32:54;5.10;95.60
64209;DHT22;50527;52.414;13.226;2022-11-12T02:35:20;5.10;95.60
64209;DHT22;50527;52.414;13.226;2022-11-12T02:37:45;5.00;96.20
64209;DHT22;50527;52.414;13.226;2022-11-12T02:40:11;5.00;96.80
64209;DHT22;50527;52.414;13.226;2022-11-12T02:42:36;5.10;96.70
64209;DHT22;50527;52.414;13.226;2022-11-12T02:45:02;5.00;96.50
64209;DHT22;50527;52.414;13.226;2022-11-12T02:47:28;5.00;96.80
64209;DHT22;50527;52.414;13.226;2022-11-12T02:49:53;5.00;96.80
64209;DHT22;50527;52.414;13.226;2022-11-12T02:52:19;5.00;97.00
64209;DHT22;50527;52.414;13.226;2022-11-12T02:54:44;5.00;97.20
64209;DHT22;50527;52.414;13.226;2022-11-12T02:57:09;5.00;97.30
64209;DHT22;50527;52.414;13.226;2022-11-12T02:59:35;5.00;97.40
64209;DHT22;50527;52.414;13.226;2022-11-12T03:02:00;4.90;97.50
64209;DHT22;50527;52.414;13.226;2022-11-12T03:04:26;4.90;97.40
64209;DHT22;50527;52.414;13.226;2022-11-12T03:06:51;4.90;97.40
64209;DHT22;50527;52.414;13.226;2022-11-12T03:09:17;4.80;97.40
64209;DHT22;50527;52.414;13.226;2022-11-12T03:11:42;4.70;97.10
64209;DHT22;50527;52.414;13.226;2022-11-12T03:14:08;4.70;97.30
64209;DHT22;50527;52.414;13.226;2022-11-12T03:16:33;4.80;96.50
64209;DHT22;50527;52.414;13.226;2022-11-12T03:18:58;4.70;96.80
64209;DHT22;50527;52.414;13.226;2022-11-12T03:21:24;4.70;96.80
64209;DHT22;50527;52.414;13.226;2022-11-12T03:23:49;4.70;97.10
64209;DHT22;50527;52.414;13.226;2022-11-12T03:26:15;4.70;97.10
64209;DHT22;50527;52.414;13.226;2022-11-12T03:28:40;4.70;97.00
64209;DHT22;50527;52.414;13.226;2022-11-12T03:31:07;4.70;97.40
64209;DHT22;50527;52.414;13.226;2022-11-12T03:33:32;4.70;97.50
64209;DHT22;50527;52.414;13.226;2022-11-12T03:35:58;4.70;97.50
64209;DHT22;50527;52.414;13.226;2022-11-12T03:38:23;4.60;97.60
64209;DHT22;50527;52.414;13.226;2022-11-12T03:40:49;4.70;97.20
64209;DHT22;50527;52.414;13.226;2022-11-12T03:43:14;4.60;97.40
64209;DHT22;50527;52.414;13.226;2022-11-12T03:45:40;4.60;97.30
64209;DHT22;50527;52.414;13.226;2022-11-12T03:48:05;4.60;98.20
64209;DHT22;50527;52.414;13.226;2022-11-12T03:50:31;4.60;98.00
64209;DHT22;50527;52.414;13.226;2022-11-12T03:52:58;4.50;97.70
64209;DHT22;50527;52.414;13.226;2022-11-12T03:55:26;4.60;98.00
64209;DHT22;50527;52.414;13.226;2022-11-12T03:57:54;4.60;98.00
64209;DHT22;50527;52.414;13.226;2022-11-12T04:00:21;4.60;97.90
64209;DHT22;50527;52.414;13.226;2022-11-12T04:02:47;4.60;97.90
64209;DHT22;50527;52.414;13.226;2022-11-12T04:05:13;4.60;97.90
64209;DHT22;50527;52.414;13.226;2022-11-12T04:08:20;4.60;98.00
64209;DHT22;50527;52.414;13.226;2022-11-12T04:11:12;4.60;97.80
64209;DHT22;50527;52.414;13.226;2022-11-12T04:13:39;4.50;97.60
64209;DHT22;50527;52.414;13.226;2022-11-12T04:16:11;4.50;97.70
64209;DHT22;50527;52.414;13.226;2022-11-12T04:18:58;4.50;97.60
64209;DHT22;50527;52.414;13.226;2022-11-12T04:21:55;4.50;97.90
64209;DHT22;50527;52.414;13.226;2022-11-12T04:24:35;4.40;97.70
64209;DHT22;50527;52.414;13.226;2022-11-12T04:29:50;4.40;97.90
64209;DHT22;50527;52.414;13.226;2022-11-12T04:32:39;4.50;97.90
64209;DHT22;50527;52.414;13.226;2022-11-12T04:35:06;4.40;98.00
64209;DHT22;50527;52.414;13.226;2022-11-12T04:37:33;4.50;97.90
64209;DHT22;50527;52.414;13.226;2022-11-12T04:40:24;4.50;97.80
64209;DHT22;50527;52.414;13.226;2022-11-12T04:43:14;4.50;97.90
64209;DHT22;50527;52.414;13.226;2022-11-12T04:45:59;4.50;97.60
64209;DHT22;50527;52.414;13.226;2022-11-12T04:48:26;4.50;97.30
64209;DHT22;50527;52.414;13.226;2022-11-12T04:51:09;4.50;96.20
64209;DHT22;50527;52.414;13.226;2022-11-12T04:53:53;4.40;97.20
64209;DHT22;50527;52.414;13.226;2022-11-12T04:56:19;4.50;97.80
64209;DHT22;50527;52.414;13.226;2022-11-12T04:58:45;4.40;97.90
64209;DHT22;50527;52.414;13.226;2022-11-12T05:01:10;4.40;98.30
64209;DHT22;50527;52.414;13.226;2022-11-12T05:03:36;4.30;98.40
64209;DHT22;50527;52.414;13.226;2022-11-12T05:06:03;4.30;98.70
64209;DHT22;50527;52.414;13.226;2022-11-12T05:08:49;4.30;98.60
64209;DHT22;50527;52.414;13.226;2022-11-12T05:11:15;4.30;98.40
64209;DHT22;50527;52.414;13.226;2022-11-12T05:13:40;4.20;98.20
64209;DHT22;50527;52.414;13.226;2022-11-12T05:16:06;4.20;98.00
64209;DHT22;50527;52.414;13.226;2022-11-12T05:18:31;4.20;98.30
64209;DHT22;50527;52.414;13.226;2022-11-12T05:20:57;4.20;98.10
64209;DHT22;50527;52.414;13.226;2022-11-12T05:23:22;4.20;98.10
64209;DHT22;50527;52.414;13.226;2022-11-12T05:25:48;4.20;97.90
64209;DHT22;50527;52.414;13.226;2022-11-12T05:28:13;4.20;97.80
64209;DHT22;50527;52.414;13.226;2022-11-12T05:30:38;4.20;98.40
64209;DHT22;50527;52.414;13.226;2022-11-12T05:33:04;4.20;98.40
64209;DHT22;50527;52.414;13.226;2022-11-12T05:35:29;4.20;98.70
64209;DHT22;50527;52.414;13.226;2022-11-12T05:37:55;4.10;98.40
64209;DHT22;50527;52.414;13.226;2022-11-12T05:40:20;4.10;98.50
64209;DHT22;50527;52.414;13.226;2022-11-12T05:42:46;4.10;98.30
64209;DHT22;50527;52.414;13.226;2022-11-12T05:45:11;4.00;98.10
64209;DHT22;50527;52.414;13.226;2022-11-12T05:47:37;4.00;97.90
64209;DHT22;50527;52.414;13.226;2022-11-12T05:50:02;4.00;97.60
64209;DHT22;50527;52.414;13.226;2022-11-12T05:52:28;4.10;97.80
64209;DHT22;50527;52.414;13.226;2022-11-12T05:54:53;4.10;97.30
64209;DHT22;50527;52.414;13.226;2022-11-12T05:57:19;4.10;97.30
64209;DHT22;50527;52.414;13.226;2022-11-12T05:59:44;4.10;96.50
64209;DHT22;50527;52.414;13.226;2022-11-12T06:02:09;4.10;96.90
64209;DHT22;50527;52.414;13.226;2022-11-12T06:04:35;4.10;97.20
64209;DHT22;50527;52.414;13.226;2022-11-12T06:07:00;4.00;97.00
64209;DHT22;50527;52.414;13.226;2022-11-12T06:09:28;4.00;97.80
64209;DHT22;50527;52.414;13.226;2022-11-12T06:11:53;4.10;98.00
64209;DHT22;50527;52.414;13.226;2022-11-12T06:14:19;4.10;97.90
64209;DHT22;50527;52.414;13.226;2022-11-12T06:16:44;4.10;97.60
64209;DHT22;50527;52.414;13.226;2022-11-12T06:19:10;4.00;97.30
64209;DHT22;50527;52.414;13.226;2022-11-12T06:21:35;4.00;98.20
64209;DHT22;50527;52.414;13.226;2022-11-12T06:24:00;4.10;98.10
64209;DHT22;50527;52.414;13.226;2022-11-12T06:26:28;4.10;97.50
64209;DHT22;50527;52.414;13.226;2022-11-12T06:28:54;4.10;97.90
64209;DHT22;50527;52.414;13.226;2022-11-12T06:31:20;4.00;97.80
64209;DHT22;50527;52.414;13.226;2022-11-12T06:33:46;4.00;97.80
64209;DHT22;50527;52.414;13.226;2022-11-12T06:36:13;4.10;96.80
64209;DHT22;50527;52.414;13.226;2022-11-12T06:38:40;4.00;97.50
64209;DHT22;50527;52.414;13.226;2022-11-12T06:41:07;4.00;98.10
64209;DHT22;50527;52.414;13.226;2022-11-12T06:43:34;4.00;98.10
64209;DHT22;50527;52.414;13.226;2022-11-12T06:46:12;4.00;98.20
64209;DHT22;50527;52.414;13.226;2022-11-12T06:48:38;4.00;97.90
64209;DHT22;50527;52.414;13.226;2022-11-12T06:51:09;4.00;98.00
64209;DHT22;50527;52.414;13.226;2022-11-12T06:53:35;4.00;98.20
64209;DHT22;50527;52.414;13.226;2022-11-12T06:56:03;4.00;97.90
64209;DHT22;50527;52.414;13.226;2022-11-12T06:58:28;4.00;97.90
64209;DHT22;50527;52.414;13.226;2022-11-12T07:00:54;4.10;98.40
64209;DHT22;50527;52.414;13.226;2022-11-12T07:03:20;4.10;98.10
64209;DHT22;50527;52.414;13.226;2022-11-12T07:05:46;4.00;98.30
64209;DHT22;50527;52.414;13.226;2022-11-12T07:08:12;4.10;98.40
64209;DHT22;50527;52.414;13.226;2022-11-12T07:10:37;4.10;97.60
64209;DHT22;50527;52.414;13.226;2022-11-12T07:13:03;4.20;97.60
64209;DHT22;50527;52.414;13.226;2022-11-12T07:15:28;4.20;97.10
64209;DHT22;50527;52.414;13.226;2022-11-12T07:17:54;4.30;96.50
64209;DHT22;50527;52.414;13.226;2022-11-12T07:20:19;4.30;97.00
64209;DHT22;50527;52.414;13.226;2022-11-12T07:22:45;4.30;97.10
64209;DHT22;50527;52.414;13.226;2022-11-12T07:25:10;4.30;97.30
64209;DHT22;50527;52.414;13.226;2022-11-12T07:27:35;4.40;97.60
64209;DHT22;50527;52.414;13.226;2022-11-12T07:30:01;4.40;97.50
64209;DHT22;50527;52.414;13.226;2022-11-12T07:32:26;4.40;97.90
64209;DHT22;50527;52.414;13.226;2022-11-12T07:34:52;4.50;97.90
64209;DHT22;50527;52.414;13.226;2022-11-12T07:37:17;4.50;98.20
64209;DHT22;50527;52.414;13.226;2022-11-12T07:39:43;4.50;98.20
64209;DHT22;50527;52.414;13.226;2022-11-12T07:42:08;4.50;98.30
64209;DHT22;50527;52.414;13.226;2022-11-12T07:44:34;4.60;98.70
64209;DHT22;50527;52.414;13.226;2022-11-12T07:46:59;4.50;98.90
64209;DHT22;50527;52.414;13.226;2022-11-12T07:49:25;4.60;99.10
64209;DHT22;50527;52.414;13.226;2022-11-12T07:51:50;4.60;99.40
64209;DHT22;50527;52.414;13.226;2022-11-12T07:54:16;4.70;99.10
64209;DHT22;50527;52.414;13.226;2022-11-12T07:56:41;4.70;99.60
64209;DHT22;50527;52.414;13.226;2022-11-12T07:59:07;4.80;99.90
64209;DHT22;50527;52.414;13.226;2022-11-12T08:01:38;4.90;99.90
64209;DHT22;50527;52.414;13.226;2022-11-12T08:04:06;4.90;99.90
64209;DHT22;50527;52.414;13.226;2022-11-12T08:06:32;5.10;99.90
64209;DHT22;50527;52.414;13.226;2022-11-12T08:09:01;5.10;99.90
64209;DHT22;50527;52.414;13.226;2022-11-12T08:11:27;5.20;99.90
64209;DHT22;50527;52.414;13.226;2022-11-12T08:13:53;5.20;99.90
64209;DHT22;50527;52.414;13.226;2022-11-12T08:16:18;5.30;99.90
64209;DHT22;50527;52.414;13.226;2022-11-12T08:18:45;5.40;99.90
64209;DHT22;50527;52.414;13.226;2022-11-12T08:21:12;5.50;99.90
64209;DHT22;50527;52.414;13.226;2022-11-12T08:23:38;5.70;99.90
64209;DHT22;50527;52.414;13.226;2022-11-12T08:26:06;5.70;99.90
64209;DHT22;50527;52.414;13.226;2022-11-12T08:28:34;5.80;99.90
64209;DHT22;50527;52.414;13.226;2022-11-12T08:33:29;6.00;99.90
64209;DHT22;50527;52.414;13.226;2022-11-12T08:35:55;6.10;99.90
64209;DHT22;50527;52.414;13.226;2022-11-12T08:38:20;6.10;99.90
64209;DHT22;50527;52.414;13.226;2022-11-12T08:40:46;6.20;99.90
64209;DHT22;50527;52.414;13.226;2022-11-12T08:43:11;6.30;99.90
64209;DHT22;50527;52.414;13.226;2022-11-12T08:45:39;6.30;99.90
64209;DHT22;50527;52.414;13.226;2022-11-12T08:48:07;6.40;99.90
64209;DHT22;50527;52.414;13.226;2022-11-12T08:50:33;6.50;99.90
64209;DHT22;50527;52.414;13.226;2022-11-12T08:53:04;6.60;99.90
64209;DHT22;50527;52.414;13.226;2022-11-12T08:55:30;6.70;99.90
64209;DHT22;50527;52.414;13.226;2022-11-12T08:57:57;6.80;99.90
64209;DHT22;50527;52.414;13.226;2022-11-12T09:00:44;6.90;99.90
64209;DHT22;50527;52.414;13.226;2022-11-12T09:03:19;7.00;99.90
64209;DHT22;50527;52.414;13.226;2022-11-12T09:05:45;7.20;99.90
64209;DHT22;50527;52.414;13.226;2022-11-12T09:08:13;7.20;99.90
64209;DHT22;50527;52.414;13.226;2022-11-12T09:10:39;7.40;99.90
64209;DHT22;50527;52.414;13.226;2022-11-12T09:13:05;7.60;99.90
64209;DHT22;50527;52.414;13.226;2022-11-12T09:15:30;8.00;99.90
64209;DHT22;50527;52.414;13.226;2022-11-12T09:17:57;8.60;98.40
64209;DHT22;50527;52.414;13.226;2022-11-12T09:20:23;9.10;96.10
64209;DHT22;50527;52.414;13.226;2022-11-12T09:22:50;9.40;94.10
64209;DHT22;50527;52.414;13.226;2022-11-12T09:25:15;9.60;93.20
64209;DHT22;50527;52.414;13.226;2022-11-12T09:27:41;9.80;92.60
64209;DHT22;50527;52.414;13.226;2022-11-12T09:30:07;9.90;91.70
64209;DHT22;50527;52.414;13.226;2022-11-12T09:32:32;9.90;92.10
64209;DHT22;50527;52.414;13.226;2022-11-12T09:34:58;9.80;92.70
64209;DHT22;50527;52.414;13.226;2022-11-12T09:37:23;9.90;92.40
64209;DHT22;50527;52.414;13.226;2022-11-12T09:39:49;9.70;92.70
64209;DHT22;50527;52.414;13.226;2022-11-12T09:42:17;9.70;93.80
64209;DHT22;50527;52.414;13.226;2022-11-12T09:44:48;9.70;94.00
64209;DHT22;50527;52.414;13.226;2022-11-12T09:47:22;9.70;92.80
64209;DHT22;50527;52.414;13.226;2022-11-12T09:50:03;9.80;93.40
64209;DHT22;50527;52.414;13.226;2022-11-12T09:52:35;9.90;94.00
64209;DHT22;50527;52.414;13.226;2022-11-12T09:55:33;10.00;94.00
64209;DHT22;50527;52.414;13.226;2022-11-12T09:57:57;10.10;93.50
64209;DHT22;50527;52.414;13.226;2022-11-12T10:00:22;10.20;93.70
64209;DHT22;50527;52.414;13.226;2022-11-12T10:03:17;10.20;92.90
64209;DHT22;50527;52.414;13.226;2022-11-12T10:05:52;10.40;93.20
64209;DHT22;50527;52.414;13.226;2022-11-12T10:11:01;10.70;92.00
64209;DHT22;50527;52.414;13.226;2022-11-12T10:13:37;10.80;92.60
64209;DHT22;50527;52.414;13.226;2022-11-12T10:16:43;11.00;92.20
64209;DHT22;50527;52.414;13.226;2022-11-12T10:19:39;11.20;92.50
64209;DHT22;50527;52.414;13.226;2022-11-12T10:22:25;11.20;91.70
64209;DHT22;50527;52.414;13.226;2022-11-12T10:24:53;11.30;92.90
64209;DHT22;50527;52.414;13.226;2022-11-12T10:27:21;11.40;92.90
64209;DHT22;50527;52.414;13.226;2022-11-12T10:30:02;11.50;92.30
64209;DHT22;50527;52.414;13.226;2022-11-12T10:32:29;11.60;92.10
64209;DHT22;50527;52.414;13.226;2022-11-12T10:34:54;11.60;93.70
64209;DHT22;50527;52.414;13.226;2022-11-12T10:37:28;11.70;93.90
64209;DHT22;50527;52.414;13.226;2022-11-12T10:39:58;11.80;92.90
64209;DHT22;50527;52.414;13.226;2022-11-12T10:42:23;11.80;92.40
64209;DHT22;50527;52.414;13.226;2022-11-12T10:44:49;12.00;91.80
64209;DHT22;50527;52.414;13.226;2022-11-12T10:50:04;12.40;92.50
64209;DHT22;50527;52.414;13.226;2022-11-12T10:52:35;12.80;86.90
64209;DHT22;50527;52.414;13.226;2022-11-12T10:55:30;12.80;84.20
64209;DHT22;50527;52.414;13.226;2022-11-12T10:58:13;12.80;84.50
64209;DHT22;50527;52.414;13.226;2022-11-12T11:01:13;13.20;82.70
64209;DHT22;50527;52.414;13.226;2022-11-12T11:03:47;13.40;78.90
64209;DHT22;50527;52.414;13.226;2022-11-12T11:08:43;13.50;80.00
64209;DHT22;50527;52.414;13.226;2022-11-12T11:13:42;13.20;80.90
64209;DHT22;50527;52.414;13.226;2022-11-12T11:16:22;13.20;82.80
64209;DHT22;50527;52.414;13.226;2022-11-12T11:18:55;13.20;81.60
64209;DHT22;50527;52.414;13.226;2022-11-12T11:21:42;13.20;83.60
64209;DHT22;50527;52.414;13.226;2022-11-12T11:24:38;13.30;82.60
64209;DHT22;50527;52.414;13.226;2022-11-12T11:27:31;13.30;82.90
64209;DHT22;50527;52.414;13.226;2022-11-12T11:35:34;13.10;82.30
64209;DHT22;50527;52.414;13.226;2022-11-12T11:38:06;13.10;83.40
64209;DHT22;50527;52.414;13.226;2022-11-12T11:40:47;13.00;83.90
64209;DHT22;50527;52.414;13.226;2022-11-12T11:43:32;13.00;85.30
64209;DHT22;50527;52.414;13.226;2022-11-12T11:54:03;12.70;87.20
64209;DHT22;50527;52.414;13.226;2022-11-12T11:56:31;12.60;88.50
64209;DHT22;50527;52.414;13.226;2022-11-12T12:04:47;12.60;85.80
64209;DHT22;50527;52.414;13.226;2022-11-12T12:12:59;12.60;88.00
64209;DHT22;50527;52.414;13.226;2022-11-12T12:15:46;12.60;87.30
64209;DHT22;50527;52.414;13.226;2022-11-12T12:18:48;12.50;86.90
64209;DHT22;50527;52.414;13.226;2022-11-12T12:21:19;12.50;87.20
64209;DHT22;50527;52.414;13.226;2022-11-12T12:23:45;12.40;88.20
64209;DHT22;50527;52.414;13.226;2022-11-12T12:26:23;12.40;88.50
64209;DHT22;50527;52.414;13.226;2022-11-12T12:29:11;12.40;88.70
64209;DHT22;50527;52.414;13.226;2022-11-12T12:31:43;12.40;89.20
64209;DHT22;50527;52.414;13.226;2022-11-12T12:34:22;12.40;88.60
64209;DHT22;50527;52.414;13.226;2022-11-12T12:36:53;12.40;88.90
64209;DHT22;50527;52.414;13.226;2022-11-12T12:42:23;12.50;87.70
64209;DHT22;50527;52.414;13.226;2022-11-12T12:44:54;12.60;87.90
64209;DHT22;50527;52.414;13.226;2022-11-12T12:47:25;12.60;87.50
64209;DHT22;50527;52.414;13.226;2022-11-12T12:49:52;12.70;86.20
64209;DHT22;50527;52.414;13.226;2022-11-12T12:52:18;12.70;87.30
64209;DHT22;50527;52.414;13.226;2022-11-12T12:57:36;12.70;85.30
64209;DHT22;50527;52.414;13.226;2022-11-12T13:00:31;12.70;88.00
64209;DHT22;50527;52.414;13.226;2022-11-12T13:02:57;12.70;87.70
64209;DHT22;50527;52.414;13.226;2022-11-12T13:07:52;12.70;87.10
64209;DHT22;50527;52.414;13.226;2022-11-12T13:15:46;12.70;87.10
64209;DHT22;50527;52.414;13.226;2022-11-12T13:23:48;12.50;89.70
64209;DHT22;50527;52.414;13.226;2022-11-12T13:31:48;12.50;88.40
64209;DHT22;50527;52.414;13.226;2022-11-12T13:34:20;12.50;88.30
64209;DHT22;50527;52.414;13.226;2022-11-12T13:36:55;12.50;88.80
64209;DHT22;50527;52.414;13.226;2022-11-12T13:39:22;12.40;89.30
64209;DHT22;50527;52.414;13.226;2022-11-12T13:41:58;12.40;90.20
64209;DHT22;50527;52.414;13.226;2022-11-12T13:44:42;12.40;90.70
64209;DHT22;50527;52.414;13.226;2022-11-12T13:47:16;12.30;91.20
64209;DHT22;50527;52.414;13.226;2022-11-12T13:49:43;12.20;91.10
64209;DHT22;50527;52.414;13.226;2022-11-12T13:52:12;12.20;91.40
64209;DHT22;50527;52.414;13.226;2022-11-12T13:54:38;12.10;91.50
64209;DHT22;50527;52.414;13.226;2022-11-12T13:57:15;12.10;91.90
64209;DHT22;50527;52.414;13.226;2022-11-12T13:59:48;12.00;91.90
64209;DHT22;50527;52.414;13.226;2022-11-12T14:02:25;12.00;92.30
64209;DHT22;50527;52.414;13.226;2022-11-12T14:04:51;12.00;92.90
64209;DHT22;50527;52.414;13.226;2022-11-12T14:07:39;11.90;92.70
64209;DHT22;50527;52.414;13.226;2022-11-12T14:10:40;11.90;92.40
64209;DHT22;50527;52.414;13.226;2022-11-12T14:19:28;11.70;93.60
64209;DHT22;50527;52.414;13.226;2022-11-12T14:24:33;11.60;94.20
64209;DHT22;50527;52.414;13.226;2022-11-12T14:26:59;11.50;94.40
64209;DHT22;50527;52.414;13.226;2022-11-12T14:29:24;11.50;94.90
64209;DHT22;50527;52.414;13.226;2022-11-12T14:31:59;11.40;95.10
64209;DHT22;50527;52.414;13.226;2022-11-12T14:34:28;11.30;95.40
64209;DHT22;50527;52.414;13.226;2022-11-12T14:36:54;11.30;95.30
64209;DHT22;50527;52.414;13.226;2022-11-12T14:39:22;11.20;96.00
64209;DHT22;50527;52.414;13.226;2022-11-12T14:41:47;11.10;96.30
64209;DHT22;50527;52.414;13.226;2022-11-12T14:44:34;11.20;96.00
64209;DHT22;50527;52.414;13.226;2022-11-12T14:47:00;11.00;96.30
64209;DHT22;50527;52.414;13.226;2022-11-12T14:52:20;10.90;96.90
64209;DHT22;50527;52.414;13.226;2022-11-12T14:54:53;10.80;96.80
64209;DHT22;50527;52.414;13.226;2022-11-12T14:57:25;10.70;97.10
64209;DHT22;50527;52.414;13.226;2022-11-12T14:59:51;10.70;97.50
64209;DHT22;50527;52.414;13.226;2022-11-12T15:02:25;10.60;97.50
64209;DHT22;50527;52.414;13.226;2022-11-12T15:05:01;10.60;97.30
64209;DHT22;50527;52.414;13.226;2022-11-12T15:07:38;10.50;97.20
64209;DHT22;50527;52.414;13.226;2022-11-12T15:10:40;10.40;96.80
64209;DHT22;50527;52.414;13.226;2022-11-12T15:13:12;10.40;97.40
64209;DHT22;50527;52.414;13.226;2022-11-12T15:15:49;10.30;97.60
64209;DHT22;50527;52.414;13.226;2022-11-12T15:18:22;10.20;97.60
64209;DHT22;50527;52.414;13.226;2022-11-12T15:23:32;10.10;97.50
64209;DHT22;50527;52.414;13.226;2022-11-12T15:25:58;10.00;97.30
64209;DHT22;50527;52.414;13.226;2022-11-12T15:28:24;9.90;97.50
64209;DHT22;50527;52.414;13.226;2022-11-12T15:31:14;9.90;97.50
64209;DHT22;50527;52.414;13.226;2022-11-12T15:33:40;9.80;97.70
64209;DHT22;50527;52.414;13.226;2022-11-12T15:36:15;9.80;97.60
64209;DHT22;50527;52.414;13.226;2022-11-12T15:38:47;9.70;97.50
64209;DHT22;50527;52.414;13.226;2022-11-12T15:41:29;9.70;97.80
64209;DHT22;50527;52.414;13.226;2022-11-12T15:43:58;9.60;97.50
64209;DHT22;50527;52.414;13.226;2022-11-12T15:46:24;9.60;97.70
64209;DHT22;50527;52.414;13.226;2022-11-12T15:48:50;9.50;97.40
64209;DHT22;50527;52.414;13.226;2022-11-12T15:51:16;9.50;97.70
64209;DHT22;50527;52.414;13.226;2022-11-12T15:53:41;9.40;97.10
64209;DHT22;50527;52.414;13.226;2022-11-12T15:56:18;9.40;96.50
64209;DHT22;50527;52.414;13.226;2022-11-12T15:58:45;9.30;96.50
64209;DHT22;50527;52.414;13.226;2022-11-12T16:01:11;9.20;97.10
64209;DHT22;50527;52.414;13.226;2022-11-12T16:03:37;9.20;97.20
64209;DHT22;50527;52.414;13.226;2022-11-12T16:06:02;9.20;97.30
64209;DHT22;50527;52.414;13.226;2022-11-12T16:08:28;9.10;97.10
64209;DHT22;50527;52.414;13.226;2022-11-12T16:10:54;9.10;96.80
64209;DHT22;50527;52.414;13.226;2022-11-12T16:13:26;9.00;96.50
64209;DHT22;50527;52.414;13.226;2022-11-12T16:15:53;9.00;96.60
64209;DHT22;50527;52.414;13.226;2022-11-12T16:18:19;9.00;96.80
64209;DHT22;50527;52.414;13.226;2022-11-12T16:20:44;8.90;96.80
64209;DHT22;50527;52.414;13.226;2022-11-12T16:23:11;8.90;97.40
64209;DHT22;50527;52.414;13.226;2022-11-12T16:25:37;8.90;97.20
64209;DHT22;50527;52.414;13.226;2022-11-12T16:28:12;8.90;97.30
64209;DHT22;50527;52.414;13.226;2022-11-12T16:30:38;8.80;98.10
64209;DHT22;50527;52.414;13.226;2022-11-12T16:33:03;8.80;97.80
64209;DHT22;50527;52.414;13.226;2022-11-12T16:35:32;8.70;97.60
64209;DHT22;50527;52.414;13.226;2022-11-12T16:37:58;8.70;98.50
64209;DHT22;50527;52.414;13.226;2022-11-12T16:40:26;8.70;97.90
64209;DHT22;50527;52.414;13.226;2022-11-12T16:42:52;8.60;97.30
64209;DHT22;50527;52.414;13.226;2022-11-12T16:45:23;8.50;96.50
64209;DHT22;50527;52.414;13.226;2022-11-12T16:47:53;8.40;95.00
64209;DHT22;50527;52.414;13.226;2022-11-12T16:50:22;8.40;96.10
64209;DHT22;50527;52.414;13.226;2022-11-12T16:52:48;8.40;97.50
64209;DHT22;50527;52.414;13.226;2022-11-12T16:55:14;8.40;97.30
64209;DHT22;50527;52.414;13.226;2022-11-12T16:57:40;8.40;97.30
64209;DHT22;50527;52.414;13.226;2022-11-12T17:00:10;8.30;96.40
64209;DHT22;50527;52.414;13.226;2022-11-12T17:02:36;8.20;97.60